Prigipos — SZRF — position and weather

sailwx.info

Track history (hours):
 
Tides and Currents Weather Stations Pressure Air Temp Water Temp Dewpoint Dewpoint Depression Visibility Wind Speed Wind Dir Waves Ship Positions

Prigipos

Last reported at 2018-Jun-16 07:38 UTC. Time now 2018-Jun-18 17:32 UTC.
Position N 25°17' W 079°34'.

Length 229 m; draft 7.8 m.

Type: Cargo ship. MMSI: 240625000.

Date/timePositionNaut miles runAvg speedWind from/ knotsBaromVisibWave heightAir tempDewpointWater temp
2018-Jun-16 07:38N 25°17' W 079°34'211.9
2018-Jun-16 07:29N 25°19' W 079°34'612.0
2018-Jun-16 07:00N 25°24' W 079°33'612.1
2018-Jun-16 06:31N 25°30' W 079°31'612.3
2018-Jun-16 06:00N 25°36' W 079°30'612.5
2018-Jun-16 05:31N 25°42' W 079°29'612.6
2018-Jun-16 05:01N 25°49' W 079°28'612.5
2018-Jun-16 04:31N 25°55' W 079°27'612.4
2018-Jun-16 04:01N 26°01' W 079°25'812.1
2018-Jun-16 03:22N 26°08' W 079°22'512.7
2018-Jun-16 03:01N 26°11' W 079°18'  
2018-Jun-08 00:27N 40°39' W 034°33'1112.7
2018-Jun-07 23:35N 40°43' W 034°20'512.7
2018-Jun-07 23:11N 40°45' W 034°14'312.4
2018-Jun-07 22:58N 40°46' W 034°10'4912.5
2018-Jun-07 19:02N 41°05' W 033°10'012.0
2018-Jun-07 19:00N 41°05' W 033°10'1312.5
2018-Jun-07 17:59N 41°10' W 032°54'612.3
2018-Jun-07 17:29N 41°13' W 032°47'1212.6
2018-Jun-07 16:31N 41°17' W 032°32'312.5
2018-Jun-07 16:14N 41°18' W 032°27'412.5
2018-Jun-07 15:56N 41°20' W 032°23'512.3
2018-Jun-07 15:30N 41°22' W 032°16'612.5
2018-Jun-07 15:01N 41°24' W 032°09'712.5
2018-Jun-07 14:29N 41°27' W 032°01'712.6
2018-Jun-07 13:55N 41°30' W 031°52'612.6
2018-Jun-07 13:29N 41°32' W 031°45'612.3
2018-Jun-07 13:00N 41°35' W 031°38'712.3
2018-Jun-07 12:24N 41°38' W 031°29'511.6
2018-Jun-07 12:00N 41°40' W 031°24'611.1
2018-Jun-07 11:25N 41°43' W 031°16'510.9
2018-Jun-07 10:58N 41°44' W 031°10'511.3
2018-Jun-07 10:30N 41°46' W 031°03'611.0
2018-Jun-07 09:59N 41°48' W 030°56'510.7
2018-Jun-07 09:30N 41°50' W 030°50'610.9
2018-Jun-07 08:59N 41°53' W 030°43'510.2
2018-Jun-07 08:30N 41°55' W 030°37'510.3
2018-Jun-07 07:59N 41°56' W 030°30'510.3
2018-Jun-07 07:30N 41°58' W 030°23'510.3
2018-Jun-07 07:00N 41°60' W 030°17'610.8
2018-Jun-07 06:27N 42°02' W 030°10'2810.8
2018-Jun-07 03:54N 42°13' W 029°36'1211.1
2018-Jun-07 02:50N 42°17' W 029°21'411.1
2018-Jun-07 02:30N 42°19' W 029°16'510.6
2018-Jun-07 01:59N 42°21' W 029°09'510.8
2018-Jun-07 01:30N 42°23' W 029°03'610.6
2018-Jun-07 00:55N 42°25' W 028°55'910.2
2018-Jun-07 00:05N 42°29' W 028°45'1 9.9
2018-Jun-06 23:58N 42°29' W 028°43'  
Track history (hours):
 
Tides and Currents Weather Stations Pressure Air Temp Water Temp Dewpoint Dewpoint Depression Visibility Wind Speed Wind Dir Waves Ship Positions

Prigipos

Last reported at 2018-Jun-16 07:38 UTC. Time now 2018-Jun-18 17:32 UTC.
Position N 25°17' W 079°34'.

Length 229 m; draft 7.8 m.

Type: Cargo ship. MMSI: 240625000.

Date/timePositionNaut miles runAvg speedWind from/ knotsBaromVisibWave heightAir tempDewpointWater temp
2018-Jun-16 07:38N 25°17' W 079°34'211.9
2018-Jun-16 07:29N 25°19' W 079°34'612.0
2018-Jun-16 07:00N 25°24' W 079°33'612.1
2018-Jun-16 06:31N 25°30' W 079°31'612.3
2018-Jun-16 06:00N 25°36' W 079°30'612.5
2018-Jun-16 05:31N 25°42' W 079°29'612.6
2018-Jun-16 05:01N 25°49' W 079°28'612.5
2018-Jun-16 04:31N 25°55' W 079°27'612.4
2018-Jun-16 04:01N 26°01' W 079°25'812.1
2018-Jun-16 03:22N 26°08' W 079°22'512.7
2018-Jun-16 03:01N 26°11' W 079°18'  
2018-Jun-08 00:27N 40°39' W 034°33'1112.7
2018-Jun-07 23:35N 40°43' W 034°20'512.7
2018-Jun-07 23:11N 40°45' W 034°14'312.4
2018-Jun-07 22:58N 40°46' W 034°10'4912.5
2018-Jun-07 19:02N 41°05' W 033°10'012.0
2018-Jun-07 19:00N 41°05' W 033°10'1312.5
2018-Jun-07 17:59N 41°10' W 032°54'612.3
2018-Jun-07 17:29N 41°13' W 032°47'1212.6
2018-Jun-07 16:31N 41°17' W 032°32'312.5
2018-Jun-07 16:14N 41°18' W 032°27'412.5
2018-Jun-07 15:56N 41°20' W 032°23'512.3
2018-Jun-07 15:30N 41°22' W 032°16'612.5
2018-Jun-07 15:01N 41°24' W 032°09'712.5
2018-Jun-07 14:29N 41°27' W 032°01'712.6
2018-Jun-07 13:55N 41°30' W 031°52'612.6
2018-Jun-07 13:29N 41°32' W 031°45'612.3
2018-Jun-07 13:00N 41°35' W 031°38'712.3
2018-Jun-07 12:24N 41°38' W 031°29'511.6
2018-Jun-07 12:00N 41°40' W 031°24'611.1
2018-Jun-07 11:25N 41°43' W 031°16'510.9
2018-Jun-07 10:58N 41°44' W 031°10'511.3
2018-Jun-07 10:30N 41°46' W 031°03'611.0
2018-Jun-07 09:59N 41°48' W 030°56'510.7
2018-Jun-07 09:30N 41°50' W 030°50'610.9
2018-Jun-07 08:59N 41°53' W 030°43'510.2
2018-Jun-07 08:30N 41°55' W 030°37'510.3
2018-Jun-07 07:59N 41°56' W 030°30'510.3
2018-Jun-07 07:30N 41°58' W 030°23'510.3
2018-Jun-07 07:00N 41°60' W 030°17'610.8
2018-Jun-07 06:27N 42°02' W 030°10'2810.8
2018-Jun-07 03:54N 42°13' W 029°36'1211.1
2018-Jun-07 02:50N 42°17' W 029°21'411.1
2018-Jun-07 02:30N 42°19' W 029°16'510.6
2018-Jun-07 01:59N 42°21' W 029°09'510.8
2018-Jun-07 01:30N 42°23' W 029°03'610.6
2018-Jun-07 00:55N 42°25' W 028°55'910.2
2018-Jun-07 00:05N 42°29' W 028°45'1 9.9
2018-Jun-06 23:58N 42°29' W 028°43'  

Dump ship's entire track history